Aérodrome :
LOGIN :

S'inscrire | Disclaimer

   EN    FR    IT 

 










Légende :    VFR   VFR Marginal   IFR   IFR Intensif   IFR Très Intensif
Visi : 
Plafond : 
>= 8 km
>= 3000ft
5 à 8 km
1000 à 3000 ft
1500m à 5 km
500 à 1000 ft
800 à 1500m
200 à 500 ft
< 800m
< 200 ft
Symboles :   Orages  Brouillard  Fortes neiges  Fortes précipitations  Vent > 20 kt
SIGMETs :   Divers  Orages  Givrage  Turbulence  Onde Orograph.  Cendres Volcan.







- Altitude de l'aérodrome : 499 ft
- Code IATA : TLS
- Voir les cartes d'approche


LFBO - Toulouse / Blagnac

DERNIER METAR :
  • 270600Z AUTO VRB02KT CAVOK 08/07 Q1011 NOSIG

METARs EXPIRÉS :
  • 270530Z AUTO 15003KT CAVOK 07/06 Q1011 NOSIG
  • 270500Z AUTO 00000KT CAVOK 07/06 Q1011 NOSIG
  • 270430Z AUTO VRB03KT CAVOK 07/06 Q1011 NOSIG
  • 270400Z AUTO 21002KT CAVOK 07/06 Q1011 NOSIG
  • 270330Z AUTO 19003KT CAVOK 07/06 Q1011 NOSIG

TAF TAF LFBO
Valide du 27 à 06h jusqu'au 28 à 12h UTC


270500Z 2706/2812 19003KT CAVOK
BECMG 2709/2711 28012KT
PROB30
TEMPO 2713/2718 SCT030TCU
BECMG 2722/2724 34008KT
PROB30
TEMPO 2801/2806 4000 SHRA SCT060TCU
ATIS : +33 5 62 74 66 36
Pas de NOTAMs connus pour ce terrain.



MET'MAP, la Météo Aéronautique d'un coup d'oeil ! - Copyright ORBIFLY Décembre 2007 - Disclaimer

ORBIFLY MET'MAP TEAM :

Programmation & Développement : Alexandra Zaïnal
Conception & Développement : Baudouin d'Aumeries
Co-Programmation & Développement : Marc-Olivier Méhu
Soutien technique & logistique : Manuel Goepfert

Contact : metmap@orbifly.com




SOURCES & CREDITS :

   NOAA